createdAt,value
2018-09-22T00:00:50.017Z,100751.16
2018-09-22T00:03:19.416Z,100754.48
2018-09-22T00:05:48.858Z,100753.77
2018-09-22T00:08:17.297Z,100749.64
2018-09-22T00:10:45.645Z,100748.95
2018-09-22T00:13:14.024Z,100751.11
2018-09-22T00:15:42.357Z,100748.84
2018-09-22T00:18:10.704Z,100755.82
2018-09-22T00:20:39.077Z,100750.15
2018-09-22T00:23:07.453Z,100750.95
2018-09-22T00:25:35.814Z,100750.46
2018-09-22T00:28:04.171Z,100754.02
2018-09-22T00:30:32.764Z,100762.96
2018-09-22T00:33:01.917Z,100760.69
2018-09-22T00:35:32.252Z,100769.26
2018-09-22T00:38:01.953Z,100762.37
2018-09-22T00:40:31.226Z,100773.09
2018-09-22T00:43:00.898Z,100770.38
2018-09-22T00:45:30.013Z,100774.67
2018-09-22T00:47:58.353Z,100777.75
2018-09-22T00:50:27.704Z,100772.94
2018-09-22T00:52:56.047Z,100775.31
2018-09-22T00:55:24.380Z,100779.13
2018-09-22T00:57:53.884Z,100786.43
2018-09-22T01:00:22.793Z,100782.95
2018-09-22T01:02:51.677Z,100786.55
2018-09-22T01:05:20.011Z,100780.59
2018-09-22T01:07:48.341Z,100783.67
2018-09-22T01:10:16.692Z,100781.05
2018-09-22T01:12:45.021Z,100783.92
2018-09-22T01:15:13.348Z,100792.72
2018-09-22T01:17:42.573Z,100804.06
2018-09-22T01:20:11.886Z,100798.20
2018-09-22T01:22:40.272Z,100797.51
2018-09-22T01:25:08.601Z,100794.18
2018-09-22T01:27:37.181Z,100799.05
2018-09-22T01:30:05.668Z,100804.69
2018-09-22T01:32:34.000Z,100807.73
2018-09-22T01:35:02.344Z,100803.98
2018-09-22T01:37:30.862Z,100802.41
2018-09-22T01:39:59.949Z,100798.95
2018-09-22T01:42:30.510Z,100806.23
2018-09-22T01:44:59.808Z,100805.40
2018-09-22T01:47:29.821Z,100803.14
2018-09-22T01:49:59.845Z,100802.66
2018-09-22T01:52:30.199Z,100807.79
2018-09-22T01:54:59.380Z,100805.14
2018-09-22T01:57:27.766Z,100807.79
2018-09-22T01:59:57.148Z,100803.36
2018-09-22T02:02:25.936Z,100799.67
2018-09-22T02:04:56.025Z,100810.83
2018-09-22T02:07:25.221Z,100807.99
2018-09-22T02:09:54.441Z,100805.70
2018-09-22T02:12:24.385Z,100810.00
2018-09-22T02:14:54.809Z,100814.31
2018-09-22T02:17:24.160Z,100812.13
2018-09-22T02:19:52.949Z,100820.13
2018-09-22T02:22:21.810Z,100824.20
2018-09-22T02:24:50.241Z,100826.34
2018-09-22T02:27:18.659Z,100827.98
2018-09-22T02:29:47.886Z,100824.16
2018-09-22T02:32:17.384Z,100829.88
2018-09-22T02:34:46.737Z,100829.87
2018-09-22T02:37:15.262Z,100833.52
2018-09-22T02:39:44.580Z,100832.69
2018-09-22T02:42:13.829Z,100832.22
2018-09-22T02:44:43.177Z,100840.42
2018-09-22T02:47:12.501Z,100838.17
2018-09-22T02:49:40.978Z,100845.78
2018-09-22T02:52:10.188Z,100853.73
2018-09-22T02:54:39.473Z,100854.23
2018-09-22T02:57:07.878Z,100855.45
2018-09-22T02:59:37.221Z,100847.81
2018-09-22T03:02:06.595Z,100851.23
2018-09-22T03:04:34.922Z,100856.73
2018-09-22T03:07:04.141Z,100853.98
2018-09-22T03:09:33.396Z,100856.48
2018-09-22T03:12:01.745Z,100856.23
2018-09-22T03:14:31.200Z,100849.30
2018-09-22T03:17:01.084Z,100858.84
2018-09-22T03:19:31.281Z,100863.20
2018-09-22T03:22:01.921Z,100855.13
2018-09-22T03:24:31.638Z,100868.66
2018-09-22T03:27:02.025Z,100875.32
2018-09-22T03:29:31.509Z,100870.42
2018-09-22T03:32:02.056Z,100872.78
2018-09-22T03:34:32.912Z,100875.19
2018-09-22T03:37:02.205Z,100868.60
2018-09-22T03:39:31.444Z,100876.84
2018-09-22T03:42:01.059Z,100882.46
2018-09-22T03:44:31.778Z,100883.94
2018-09-22T03:47:01.731Z,100882.23
2018-09-22T03:49:31.668Z,100886.22
2018-09-22T03:52:01.662Z,100884.70
2018-09-22T03:54:31.757Z,100884.35
2018-09-22T03:57:01.553Z,100887.39
2018-09-22T03:59:30.682Z,100895.11
2018-09-22T04:02:00.517Z,100896.48
2018-09-22T04:04:29.241Z,100893.27
2018-09-22T04:06:57.748Z,100889.59
2018-09-22T04:09:26.152Z,100895.97
2018-09-22T04:11:55.437Z,100892.42
2018-09-22T04:14:24.757Z,100884.59
2018-09-22T04:16:54.926Z,100885.56
2018-09-22T04:19:25.785Z,100883.41
2018-09-22T04:21:55.161Z,100894.80
2018-09-22T04:24:23.668Z,100895.47
2018-09-22T04:26:52.937Z,100891.79
2018-09-22T04:29:22.033Z,100899.24
2018-09-22T04:31:50.533Z,100898.21
2018-09-22T04:34:19.307Z,100907.55
2018-09-22T04:36:47.733Z,100907.17
2018-09-22T04:39:16.073Z,100910.69
2018-09-22T04:41:46.289Z,100911.30
2018-09-22T04:44:14.805Z,100909.52
2018-09-22T04:46:43.145Z,100914.38
2018-09-22T04:49:12.358Z,100924.50
2018-09-22T04:51:41.514Z,100927.19
2018-09-22T04:54:10.854Z,100929.59
2018-09-22T04:56:39.228Z,100928.61
2018-09-22T04:59:07.631Z,100943.58
2018-09-22T05:01:36.939Z,100944.81
2018-09-22T05:04:06.449Z,100952.72
2018-09-22T05:06:35.042Z,100952.03
2018-09-22T05:09:06.085Z,100957.62
2018-09-22T05:11:35.300Z,100958.50
2018-09-22T05:14:04.733Z,100955.87
2018-09-22T05:16:34.044Z,100970.58
2018-09-22T05:19:03.281Z,100966.16
2018-09-22T05:21:32.719Z,100964.69
2018-09-22T05:24:02.009Z,100975.27
2018-09-22T05:26:32.661Z,100988.92
2018-09-22T05:29:01.784Z,100995.56
2018-09-22T05:31:31.605Z,100996.99
2018-09-22T05:34:00.981Z,100999.55
2018-09-22T05:36:30.021Z,101001.91
2018-09-22T05:38:58.390Z,101002.16
2018-09-22T05:41:27.648Z,100997.92
2018-09-22T05:43:57.326Z,101001.00
2018-09-22T05:46:26.710Z,101000.14
2018-09-22T05:48:56.303Z,101000.27
2018-09-22T05:51:24.937Z,101004.91
2018-09-22T05:53:55.772Z,101012.53
2018-09-22T05:56:25.153Z,101021.22
2018-09-22T05:58:54.047Z,101019.39
2018-09-22T06:01:25.475Z,101027.04
2018-09-22T06:03:54.828Z,101028.70
2018-09-22T06:06:24.348Z,101024.11
2018-09-22T06:08:55.149Z,101029.14
2018-09-22T06:11:24.624Z,101038.06
2018-09-22T06:13:53.547Z,101044.20
2018-09-22T06:16:23.493Z,101048.91
2018-09-22T06:18:53.078Z,101050.02
2018-09-22T06:21:22.011Z,101054.20
2018-09-22T06:23:50.422Z,101055.54
2018-09-22T06:26:18.762Z,101059.98
2018-09-22T06:28:47.146Z,101073.73
2018-09-22T06:31:15.446Z,101074.27
2018-09-22T06:33:43.772Z,101074.66
2018-09-22T06:36:12.270Z,101083.95
2018-09-22T06:38:40.593Z,101086.62
2018-09-22T06:41:08.933Z,101090.83
2018-09-22T06:43:37.265Z,101090.44
2018-09-22T06:46:06.278Z,101090.83
2018-09-22T06:48:34.652Z,101094.10
2018-09-22T06:51:03.197Z,101098.16
2018-09-22T06:53:31.577Z,101100.45
2018-09-22T06:56:00.983Z,101092.93
2018-09-22T06:58:29.833Z,101103.84
2018-09-22T07:00:58.879Z,101099.06
2018-09-22T07:03:27.209Z,101107.86
2018-09-22T07:05:55.536Z,101104.69
2018-09-22T07:08:26.028Z,101113.56
2018-09-22T07:10:55.177Z,101109.17
2018-09-22T07:13:24.437Z,101113.14
2018-09-22T07:15:54.147Z,101118.77
2018-09-22T07:18:23.261Z,101113.80
2018-09-22T07:20:56.826Z,101111.66
2018-09-22T07:23:25.164Z,101113.88
2018-09-22T07:25:53.697Z,101112.45
2018-09-22T07:28:22.123Z,101119.84
2018-09-22T07:30:51.772Z,101117.47
2018-09-22T07:33:20.303Z,101121.06
2018-09-22T07:35:48.641Z,101124.04
2018-09-22T07:38:17.060Z,101132.78
2018-09-22T07:40:45.406Z,101140.20
2018-09-22T07:43:13.740Z,101135.77
2018-09-22T07:45:42.082Z,101141.00
2018-09-22T07:48:11.515Z,101138.11
2018-09-22T07:50:39.868Z,101150.66
2018-09-22T07:53:08.217Z,101163.64
2018-09-22T07:55:37.616Z,101162.49
2018-09-22T07:58:06.175Z,101154.57
2018-09-22T08:00:35.682Z,101155.05
2018-09-22T08:03:04.939Z,101158.01
2018-09-22T08:05:33.409Z,101163.13
2018-09-22T08:08:02.585Z,101163.09
2018-09-22T08:10:32.148Z,101164.81
2018-09-22T08:13:01.774Z,101171.63
2018-09-22T08:15:31.341Z,101177.27
2018-09-22T08:18:00.865Z,101196.11
2018-09-22T08:20:29.900Z,101183.88
2018-09-22T08:23:00.038Z,101184.42
2018-09-22T08:25:29.362Z,101184.50
2018-09-22T08:27:57.813Z,101195.34
2018-09-22T08:30:27.109Z,101192.91
2018-09-22T08:32:56.480Z,101192.95
2018-09-22T08:35:24.831Z,101195.11
2018-09-22T08:37:53.985Z,101197.06
2018-09-22T08:40:23.742Z,101201.31
2018-09-22T08:42:53.221Z,101196.26
2018-09-22T08:45:22.033Z,101206.21
2018-09-22T08:47:52.362Z,101187.80
2018-09-22T08:50:20.752Z,101191.94
2018-09-22T08:52:49.085Z,101191.55
2018-09-22T08:55:17.419Z,101186.78
2018-09-22T08:57:46.634Z,101185.14
2018-09-22T09:00:15.997Z,101194.32
2018-09-22T09:02:45.340Z,101193.65
2018-09-22T09:05:13.705Z,101190.25
2018-09-22T09:07:42.221Z,101196.09
2018-09-22T09:10:10.637Z,101194.78
2018-09-22T09:12:39.070Z,101192.55
2018-09-22T09:15:07.702Z,101207.58
2018-09-22T09:17:36.088Z,101203.17
2018-09-22T09:20:04.533Z,101212.23
2018-09-22T09:22:33.005Z,101198.70
2018-09-22T09:25:03.660Z,101207.97
2018-09-22T09:27:32.012Z,101200.35
2018-09-22T09:30:01.620Z,101193.23
2018-09-22T09:32:32.234Z,101192.39
2018-09-22T09:35:02.662Z,101197.98
2018-09-22T09:37:32.017Z,101190.98
2018-09-22T09:40:01.571Z,101197.84
2018-09-22T09:42:31.485Z,101193.36
2018-09-22T09:45:00.581Z,101197.84
2018-09-22T09:47:29.382Z,101192.84
2018-09-22T09:49:59.860Z,101201.92
2018-09-22T09:52:28.613Z,101197.70
2018-09-22T09:54:57.996Z,101204.92
2018-09-22T09:57:27.019Z,101193.92
2018-09-22T09:59:55.370Z,101198.15
2018-09-22T10:02:26.578Z,101194.27
2018-09-22T10:04:54.950Z,101192.41
2018-09-22T10:07:25.105Z,101195.89
2018-09-22T10:09:54.640Z,101192.44
2018-09-22T10:12:24.080Z,101186.79
2018-09-22T10:14:53.085Z,101186.86
2018-09-22T10:17:23.129Z,101186.72
2018-09-22T10:19:52.490Z,101184.99
2018-09-22T10:22:20.846Z,101185.61
2018-09-22T10:24:49.355Z,101191.50
2018-09-22T10:27:17.760Z,101184.06
2018-09-22T10:29:46.089Z,101182.27
2018-09-22T10:32:14.429Z,101185.33
2018-09-22T10:34:42.790Z,101181.67
2018-09-22T10:37:11.157Z,101185.05
2018-09-22T10:39:39.521Z,101187.67
2018-09-22T10:42:08.837Z,101185.05
2018-09-22T10:44:37.174Z,101182.68
2018-09-22T10:47:05.525Z,101184.91
2018-09-22T10:49:33.901Z,101193.05
2018-09-22T10:52:02.525Z,101189.69
2018-09-22T10:54:32.355Z,101184.55
2018-09-22T10:57:02.165Z,101190.31
2018-09-22T10:59:31.156Z,101195.33
2018-09-22T11:02:00.705Z,101187.55
2018-09-22T11:04:31.320Z,101178.79
2018-09-22T11:07:02.383Z,101183.95
2018-09-22T11:09:30.926Z,101191.02
2018-09-22T11:11:59.921Z,101184.41
2018-09-22T11:14:28.819Z,101190.11
2018-09-22T11:16:57.156Z,101176.48
2018-09-22T11:19:26.489Z,101178.07
2018-09-22T11:21:56.089Z,101182.81
2018-09-22T11:24:25.457Z,101177.95
2018-09-22T11:26:54.833Z,101177.11
2018-09-22T11:29:24.109Z,101172.42
2018-09-22T11:31:53.374Z,101175.96
2018-09-22T11:34:22.229Z,101160.14
2018-09-22T11:36:52.488Z,101153.23
2018-09-22T11:39:20.862Z,101149.06
2018-09-22T11:41:49.232Z,101158.23
2018-09-22T11:44:18.699Z,101140.73
2018-09-22T11:46:47.062Z,101151.08
2018-09-22T11:49:16.286Z,101153.58
2018-09-22T11:51:45.582Z,101149.40
2018-09-22T11:54:14.941Z,101146.20
2018-09-22T11:56:44.209Z,101150.48
2018-09-22T11:59:12.630Z,101146.36
2018-09-22T12:01:40.961Z,101159.75
2018-09-22T12:04:10.261Z,101161.17
2018-09-22T12:06:39.924Z,101158.90
2018-09-22T12:09:10.737Z,101156.97
2018-09-22T12:11:39.350Z,101145.58
2018-09-22T12:14:07.724Z,101141.09
2018-09-22T12:16:36.969Z,101141.99
2018-09-22T12:19:05.428Z,101139.70
2018-09-22T12:21:34.672Z,101131.15
2018-09-22T12:24:03.030Z,101135.16
2018-09-22T12:26:31.489Z,101150.16
2018-09-22T12:29:01.157Z,101125.65
2018-09-22T12:31:31.916Z,101131.09
2018-09-22T12:34:02.168Z,101128.09
2018-09-22T12:36:31.283Z,101130.30
2018-09-22T12:39:01.546Z,101121.63
2018-09-22T12:41:31.374Z,101134.02
2018-09-22T12:44:01.336Z,101140.48
2018-09-22T12:46:30.837Z,101130.30
2018-09-22T12:48:59.384Z,101137.31
2018-09-22T12:51:28.522Z,101131.09
2018-09-22T12:53:56.959Z,101125.39
2018-09-22T12:56:26.272Z,101142.45
2018-09-22T12:58:56.086Z,101135.37
2018-09-22T13:01:25.861Z,101126.39
2018-09-22T13:03:54.980Z,101124.48
2018-09-22T13:06:23.362Z,101138.78
2018-09-22T13:09:02.150Z,101133.08
2018-09-22T13:11:48.216Z,101134.17
2018-09-22T13:14:32.929Z,101135.19
2018-09-22T13:17:02.366Z,101105.01
2018-09-22T13:19:32.982Z,101117.31
2018-09-22T13:22:02.833Z,101122.47
2018-09-22T13:24:31.920Z,101127.45
2018-09-22T13:27:01.874Z,101110.05
2018-09-22T13:29:31.714Z,101127.45
2018-09-22T13:32:01.797Z,101131.77
2018-09-22T13:34:31.606Z,101131.66
2018-09-22T13:37:00.960Z,101113.09
2018-09-22T13:39:29.398Z,101123.11
2018-09-22T13:41:57.749Z,101119.91
2018-09-22T13:44:27.021Z,101123.17
2018-09-22T13:46:55.352Z,101120.06
2018-09-22T13:49:25.077Z,101114.32
2018-09-22T13:51:54.096Z,101117.70
2018-09-22T13:54:25.341Z,101105.99
2018-09-22T13:56:56.101Z,101111.37
2018-09-22T13:59:25.510Z,101109.53
2018-09-22T14:01:54.848Z,101109.77
2018-09-22T14:04:24.218Z,101107.77
2018-09-22T14:06:54.609Z,101108.67
2018-09-22T14:09:24.742Z,101096.66
2018-09-22T14:11:53.973Z,101108.87
2018-09-22T14:14:31.399Z,101095.56
2018-09-22T14:17:01.288Z,101101.11
2018-09-22T14:19:30.703Z,101096.92
2018-09-22T14:22:00.141Z,101105.25
2018-09-22T14:24:28.495Z,101097.31
2018-09-22T14:26:56.861Z,101087.62
2018-09-22T14:29:25.233Z,101090.95
2018-09-22T14:31:54.240Z,101091.40
2018-09-22T14:34:23.268Z,101088.08
2018-09-22T14:36:52.371Z,101087.20
2018-09-22T14:39:20.717Z,101099.40
2018-09-22T14:41:49.097Z,101098.14
2018-09-22T14:44:17.446Z,101094.25
2018-09-22T14:46:45.807Z,101091.92
2018-09-22T14:49:14.156Z,101093.97
2018-09-22T14:51:42.497Z,101099.23
2018-09-22T14:54:10.843Z,101089.71
2018-09-22T14:56:39.185Z,101087.22
2018-09-22T14:59:07.619Z,101084.55
2018-09-22T15:01:35.969Z,101083.25
2018-09-22T15:04:04.321Z,101078.66
2018-09-22T15:06:32.660Z,101088.20
2018-09-22T15:09:01.957Z,101076.34
2018-09-22T15:11:31.356Z,101081.05
2018-09-22T15:14:00.672Z,101071.56
2018-09-22T15:16:30.501Z,101072.38
2018-09-22T15:19:00.980Z,101070.37
2018-09-22T15:21:30.181Z,101082.92
2018-09-22T15:24:00.288Z,101077.91
2018-09-22T15:26:29.787Z,101072.45
2018-09-22T15:29:05.141Z,101073.58
2018-09-22T15:31:33.472Z,101080.08
2018-09-22T15:34:02.313Z,101085.81
2018-09-22T15:36:31.354Z,101077.68
2018-09-22T15:39:00.389Z,101076.71
2018-09-22T15:41:29.913Z,101071.95
2018-09-22T15:43:58.846Z,101072.73
2018-09-22T15:46:27.173Z,101056.23
2018-09-22T15:48:55.757Z,101066.45
2018-09-22T15:51:25.076Z,101057.59
2018-09-22T15:53:55.141Z,101063.16
2018-09-22T15:56:24.356Z,101073.79
2018-09-22T15:58:53.481Z,101070.05
2018-09-22T16:01:22.064Z,101072.89
2018-09-22T16:03:51.402Z,101064.65
2018-09-22T16:06:19.751Z,101061.66
2018-09-22T16:08:48.175Z,101055.75
2018-09-22T16:11:16.725Z,101057.98
2018-09-22T16:13:45.066Z,101054.36
2018-09-22T16:16:13.405Z,101057.43
2018-09-22T16:18:41.746Z,101054.32
2018-09-22T16:21:10.086Z,101058.02
2018-09-22T16:23:38.424Z,101058.91
2018-09-22T16:26:08.640Z,101057.19
2018-09-22T16:28:37.548Z,101058.18
2018-09-22T16:31:06.154Z,101055.06
2018-09-22T16:33:34.508Z,101056.22
2018-09-22T16:36:03.605Z,101056.49
2018-09-22T16:38:31.987Z,101053.46
2018-09-22T16:41:01.522Z,101056.09
2018-09-22T16:43:31.237Z,101051.02
2018-09-22T16:46:00.468Z,101054.41
2018-09-22T16:48:29.492Z,101048.32
2018-09-22T16:50:57.933Z,101044.36
2018-09-22T16:53:26.365Z,101051.05
2018-09-22T16:55:55.408Z,101044.73
2018-09-22T16:58:24.809Z,101046.29
2018-09-22T17:00:57.177Z,101053.72
2018-09-22T17:03:25.534Z,101062.52
2018-09-22T17:05:54.989Z,101054.61
2018-09-22T17:08:23.488Z,101051.25
2018-09-22T17:10:52.381Z,101037.70
2018-09-22T17:13:20.800Z,101036.75
2018-09-22T17:15:49.284Z,101039.23
2018-09-22T17:18:17.893Z,101048.80
2018-09-22T17:20:46.516Z,101056.06
2018-09-22T17:23:14.858Z,101058.34
2018-09-22T17:25:43.202Z,101052.57
2018-09-22T17:28:12.421Z,101047.81
2018-09-22T17:30:41.133Z,101042.03
2018-09-22T17:33:09.482Z,101051.71
2018-09-22T17:35:38.823Z,101040.70
2018-09-22T17:38:07.203Z,101044.06
2018-09-22T17:40:35.581Z,101048.62
2018-09-22T17:43:03.934Z,101033.50
2018-09-22T17:45:32.486Z,101031.34
2018-09-22T17:48:03.267Z,101034.76
2018-09-22T17:50:31.620Z,101028.12
2018-09-22T17:53:02.083Z,101037.63
2018-09-22T17:55:32.807Z,101046.14
2018-09-22T17:58:02.531Z,101063.56
2018-09-22T18:00:31.906Z,101068.34
2018-09-22T18:03:01.425Z,101067.36
2018-09-22T18:05:31.616Z,101056.92
2018-09-22T18:08:01.944Z,101053.61
2018-09-22T18:10:32.955Z,101047.48
2018-09-22T18:13:02.867Z,101052.54
2018-09-22T18:15:33.639Z,101051.02
2018-09-22T18:18:02.078Z,101048.05
2018-09-22T18:20:32.409Z,101041.13
2018-09-22T18:23:01.761Z,101040.42
2018-09-22T18:25:32.106Z,101042.24
2018-09-22T18:28:01.505Z,101035.91
2018-09-22T18:30:32.227Z,101030.02
2018-09-22T18:33:01.417Z,101034.54
2018-09-22T18:35:30.770Z,101040.70
2018-09-22T18:38:00.257Z,101040.52
2018-09-22T18:40:31.066Z,101038.27
2018-09-22T18:43:01.842Z,101029.20
2018-09-22T18:45:31.387Z,101032.69
2018-09-22T18:48:00.852Z,101031.52
2018-09-22T18:50:30.794Z,101036.16
2018-09-22T18:53:00.295Z,101031.18
2018-09-22T18:55:29.865Z,101035.73
2018-09-22T18:58:00.306Z,101035.64
2018-09-22T19:00:29.593Z,101040.89
2018-09-22T19:03:00.221Z,101032.43
2018-09-22T19:05:29.030Z,101019.30
2018-09-22T19:07:58.459Z,101016.09
2018-09-22T19:10:27.250Z,101012.02
2018-09-22T19:12:56.265Z,101010.02
2018-09-22T19:15:35.780Z,101011.54
2018-09-22T19:18:09.289Z,101016.42
2018-09-22T19:20:44.497Z,101012.04
2018-09-22T19:23:16.563Z,101020.05
2018-09-22T19:25:49.507Z,101016.94
2018-09-22T19:28:26.737Z,101018.49
2018-09-22T19:30:57.873Z,101018.38
2018-09-22T19:33:32.410Z,101021.95
2018-09-22T19:36:15.683Z,101022.80
2018-09-22T19:38:59.681Z,101017.78
2018-09-22T19:42:07.768Z,101009.30
2018-09-22T19:44:56.744Z,101005.22
2018-09-22T19:48:00.469Z,101003.20
2018-09-22T19:50:34.785Z,101006.30
2018-09-22T19:53:03.374Z,100992.47
2018-09-22T19:55:31.693Z,100996.87
2018-09-22T19:58:00.720Z,101010.48
2018-09-22T20:00:29.858Z,101004.29
2018-09-22T20:02:58.285Z,101017.03
2018-09-22T20:05:26.751Z,101044.52
2018-09-22T20:07:55.100Z,101052.72
2018-09-22T20:10:24.522Z,101060.10
2018-09-22T20:12:53.528Z,101065.66
2018-09-22T20:15:23.604Z,101084.25
2018-09-22T20:17:52.127Z,101071.38
2018-09-22T20:20:20.473Z,101066.31
2018-09-22T20:22:48.790Z,101075.19
2018-09-22T20:25:17.185Z,101080.02
2018-09-22T20:27:45.549Z,101088.21
2018-09-22T20:30:13.925Z,101084.64
2018-09-22T20:32:44.188Z,101098.23
2018-09-22T20:35:12.784Z,101098.73
2018-09-22T20:37:42.160Z,101088.70
2018-09-22T20:40:10.782Z,101086.41
2018-09-22T20:42:39.294Z,101091.77
2018-09-22T20:45:07.641Z,101098.10
2018-09-22T20:47:36.009Z,101085.20
2018-09-22T20:50:04.346Z,101084.68
2018-09-22T20:52:32.765Z,101076.09
2018-09-22T20:55:02.070Z,101091.68
2018-09-22T20:57:31.092Z,101091.77
2018-09-22T20:59:59.421Z,101086.12
2018-09-22T21:02:27.791Z,101071.91
2018-09-22T21:04:56.197Z,101065.06
2018-09-22T21:07:25.272Z,101065.48
2018-09-22T21:09:54.333Z,101052.09
2018-09-22T21:12:24.169Z,101045.48
2018-09-22T21:14:54.062Z,101038.76
2018-09-22T21:17:23.317Z,101039.22
2018-09-22T21:19:51.656Z,101042.41
2018-09-22T21:22:20.137Z,101042.56
2018-09-22T21:24:49.760Z,101053.80
2018-09-22T21:27:18.185Z,101077.05
2018-09-22T21:29:46.521Z,101088.52
2018-09-22T21:32:14.909Z,101096.07
2018-09-22T21:34:44.053Z,101087.63
2018-09-22T21:37:13.287Z,101089.17
2018-09-22T21:39:41.608Z,101085.30
2018-09-22T21:42:09.952Z,101090.50
2018-09-22T21:44:39.210Z,101087.08
2018-09-22T21:47:08.481Z,101084.86
2018-09-22T21:49:36.803Z,101094.11
2018-09-22T21:52:05.134Z,101091.35
2018-09-22T21:54:34.349Z,101089.08
2018-09-22T21:57:03.589Z,101096.00
2018-09-22T21:59:33.178Z,101086.30
2018-09-22T22:02:02.425Z,101082.97
2018-09-22T22:04:31.703Z,101074.91
2018-09-22T22:07:01.082Z,101085.41
2018-09-22T22:09:29.425Z,101077.02
2018-09-22T22:12:00.204Z,101074.39
2018-09-22T22:14:29.486Z,101079.48
2018-09-22T22:16:59.807Z,101086.77
2018-09-22T22:19:29.965Z,101085.20
2018-09-22T22:21:59.878Z,101081.80
2018-09-22T22:24:30.680Z,101082.17
2018-09-22T22:27:01.225Z,101086.97
2018-09-22T22:29:30.969Z,101085.47
2018-09-22T22:32:01.382Z,101079.77
2018-09-22T22:34:31.420Z,101086.19
2018-09-22T22:37:01.421Z,101091.04
2018-09-22T22:39:30.504Z,101084.42
2018-09-22T22:42:00.902Z,101081.00
2018-09-22T22:44:30.737Z,101074.91
2018-09-22T22:47:00.834Z,101075.11
2018-09-22T22:49:29.885Z,101066.60
2018-09-22T22:51:58.994Z,101063.66
2018-09-22T22:54:29.313Z,101061.50
2018-09-22T22:56:57.677Z,101069.33
2018-09-22T22:59:26.980Z,101074.45
2018-09-22T23:01:56.309Z,101075.17
2018-09-22T23:04:25.753Z,101076.02
2018-09-22T23:06:55.225Z,101062.28
2018-09-22T23:09:24.710Z,101066.51
2018-09-22T23:11:53.749Z,101069.45
2018-09-22T23:14:22.551Z,101071.80
2018-09-22T23:16:52.693Z,101067.27
2018-09-22T23:19:21.067Z,101065.46
2018-09-22T23:21:50.404Z,101061.71
2018-09-22T23:24:18.793Z,101058.28
2018-09-22T23:26:49.235Z,101062.27
2018-09-22T23:29:18.772Z,101059.64
2018-09-22T23:31:47.994Z,101055.05
2018-09-22T23:34:17.349Z,101049.44
2018-09-22T23:36:46.245Z,101044.84
2018-09-22T23:39:14.625Z,101042.95
2018-09-22T23:41:44.005Z,101041.91
2018-09-22T23:44:13.216Z,101046.61
2018-09-22T23:46:42.477Z,101058.19
2018-09-22T23:49:11.721Z,101049.29
2018-09-22T23:51:40.984Z,101046.06
2018-09-22T23:54:10.217Z,101049.20
2018-09-22T23:56:38.586Z,101041.47
2018-09-22T23:59:07.792Z,101043.50
